sensor_id;sensor_type;location;lat;lon;timestamp;temperature;humidity
24035;DHT22;12242;50.952;4.678;2023-04-24T00:01:56;9.80;99.90
24035;DHT22;12242;50.952;4.678;2023-04-24T00:04:25;9.80;99.90
24035;DHT22;12242;50.952;4.678;2023-04-24T00:06:53;9.70;99.90
24035;DHT22;12242;50.952;4.678;2023-04-24T00:09:24;9.70;99.90
24035;DHT22;12242;50.952;4.678;2023-04-24T00:11:52;9.70;99.90
24035;DHT22;12242;50.952;4.678;2023-04-24T00:14:21;9.70;99.90
24035;DHT22;12242;50.952;4.678;2023-04-24T00:16:57;9.70;99.90
24035;DHT22;12242;50.952;4.678;2023-04-24T00:19:48;9.80;99.90
24035;DHT22;12242;50.952;4.678;2023-04-24T00:22:17;9.70;99.90
24035;DHT22;12242;50.952;4.678;2023-04-24T00:24:45;9.80;99.90
24035;DHT22;12242;50.952;4.678;2023-04-24T00:27:13;9.70;99.90
24035;DHT22;12242;50.952;4.678;2023-04-24T00:29:47;9.80;99.90
24035;DHT22;12242;50.952;4.678;2023-04-24T00:32:15;9.80;99.90
24035;DHT22;12242;50.952;4.678;2023-04-24T00:34:43;9.70;99.90
24035;DHT22;12242;50.952;4.678;2023-04-24T00:37:10;9.70;99.90
24035;DHT22;12242;50.952;4.678;2023-04-24T00:39:38;9.80;99.90
24035;DHT22;12242;50.952;4.678;2023-04-24T00:45:09;9.80;99.90
24035;DHT22;12242;50.952;4.678;2023-04-24T00:47:37;9.70;99.90
24035;DHT22;12242;50.952;4.678;2023-04-24T00:50:05;9.80;99.90
24035;DHT22;12242;50.952;4.678;2023-04-24T00:52:34;9.70;99.90
24035;DHT22;12242;50.952;4.678;2023-04-24T00:55:02;9.60;99.90
24035;DHT22;12242;50.952;4.678;2023-04-24T00:57:30;9.50;99.90
24035;DHT22;12242;50.952;4.678;2023-04-24T00:59:58;9.40;99.90
24035;DHT22;12242;50.952;4.678;2023-04-24T01:02:26;9.40;99.90
24035;DHT22;12242;50.952;4.678;2023-04-24T01:04:54;9.40;99.90
24035;DHT22;12242;50.952;4.678;2023-04-24T01:07:21;9.30;99.90
24035;DHT22;12242;50.952;4.678;2023-04-24T01:09:49;9.30;99.90
24035;DHT22;12242;50.952;4.678;2023-04-24T01:12:19;9.30;99.90
24035;DHT22;12242;50.952;4.678;2023-04-24T01:14:47;9.30;99.90
24035;DHT22;12242;50.952;4.678;2023-04-24T01:17:14;9.30;99.90
24035;DHT22;12242;50.952;4.678;2023-04-24T01:19:42;9.30;99.90
24035;DHT22;12242;50.952;4.678;2023-04-24T01:22:15;9.30;99.90
24035;DHT22;12242;50.952;4.678;2023-04-24T01:24:43;9.40;99.90
24035;DHT22;12242;50.952;4.678;2023-04-24T01:27:11;9.40;99.90
24035;DHT22;12242;50.952;4.678;2023-04-24T01:29:39;9.40;99.90
24035;DHT22;12242;50.952;4.678;2023-04-24T01:32:08;9.30;99.90
24035;DHT22;12242;50.952;4.678;2023-04-24T01:34:36;9.40;99.90
24035;DHT22;12242;50.952;4.678;2023-04-24T01:37:04;9.40;99.90
24035;DHT22;12242;50.952;4.678;2023-04-24T01:39:44;9.40;99.90
24035;DHT22;12242;50.952;4.678;2023-04-24T01:42:12;9.40;99.90
24035;DHT22;12242;50.952;4.678;2023-04-24T01:44:41;9.40;99.90
24035;DHT22;12242;50.952;4.678;2023-04-24T01:47:09;9.50;99.90
24035;DHT22;12242;50.952;4.678;2023-04-24T01:49:38;9.50;99.90
24035;DHT22;12242;50.952;4.678;2023-04-24T01:52:07;9.40;99.90
24035;DHT22;12242;50.952;4.678;2023-04-24T01:54:35;9.50;99.90
24035;DHT22;12242;50.952;4.678;2023-04-24T01:57:03;9.40;99.90
24035;DHT22;12242;50.952;4.678;2023-04-24T01:59:31;9.40;99.90
24035;DHT22;12242;50.952;4.678;2023-04-24T02:02:00;9.30;99.90
24035;DHT22;12242;50.952;4.678;2023-04-24T02:04:28;9.40;99.90
24035;DHT22;12242;50.952;4.678;2023-04-24T02:06:56;9.40;99.90
24035;DHT22;12242;50.952;4.678;2023-04-24T02:09:24;9.40;99.90
24035;DHT22;12242;50.952;4.678;2023-04-24T02:11:52;9.40;99.90
24035;DHT22;12242;50.952;4.678;2023-04-24T02:14:20;9.30;99.90
24035;DHT22;12242;50.952;4.678;2023-04-24T02:16:47;9.30;99.90
24035;DHT22;12242;50.952;4.678;2023-04-24T02:19:15;9.30;99.90
24035;DHT22;12242;50.952;4.678;2023-04-24T02:21:43;9.20;99.90
24035;DHT22;12242;50.952;4.678;2023-04-24T02:24:10;9.30;99.90
24035;DHT22;12242;50.952;4.678;2023-04-24T02:26:38;9.30;99.90
24035;DHT22;12242;50.952;4.678;2023-04-24T02:29:06;9.20;99.90
24035;DHT22;12242;50.952;4.678;2023-04-24T02:31:33;9.10;99.90
24035;DHT22;12242;50.952;4.678;2023-04-24T02:34:01;9.10;99.90
24035;DHT22;12242;50.952;4.678;2023-04-24T02:36:29;9.00;99.90
24035;DHT22;12242;50.952;4.678;2023-04-24T02:38:57;9.00;99.90
24035;DHT22;12242;50.952;4.678;2023-04-24T02:41:25;9.00;99.90
24035;DHT22;12242;50.952;4.678;2023-04-24T02:43:59;9.00;99.90
24035;DHT22;12242;50.952;4.678;2023-04-24T02:46:27;9.00;99.90
24035;DHT22;12242;50.952;4.678;2023-04-24T02:48:55;9.00;99.90
24035;DHT22;12242;50.952;4.678;2023-04-24T02:51:22;8.90;99.90
24035;DHT22;12242;50.952;4.678;2023-04-24T02:53:50;9.00;99.90
24035;DHT22;12242;50.952;4.678;2023-04-24T02:56:18;9.00;99.90
24035;DHT22;12242;50.952;4.678;2023-04-24T02:58:46;9.00;99.90
24035;DHT22;12242;50.952;4.678;2023-04-24T03:01:14;9.00;99.90
24035;DHT22;12242;50.952;4.678;2023-04-24T03:03:42;9.00;99.90
24035;DHT22;12242;50.952;4.678;2023-04-24T03:06:09;9.00;99.90
24035;DHT22;12242;50.952;4.678;2023-04-24T03:08:38;9.00;99.90
24035;DHT22;12242;50.952;4.678;2023-04-24T03:11:05;8.90;99.90
24035;DHT22;12242;50.952;4.678;2023-04-24T03:13:33;8.90;99.90
24035;DHT22;12242;50.952;4.678;2023-04-24T03:16:00;8.90;99.90
24035;DHT22;12242;50.952;4.678;2023-04-24T03:18:28;8.80;99.90
24035;DHT22;12242;50.952;4.678;2023-04-24T03:20:56;8.80;99.90
24035;DHT22;12242;50.952;4.678;2023-04-24T03:23:23;8.80;99.90
24035;DHT22;12242;50.952;4.678;2023-04-24T03:25:51;8.80;99.90
24035;DHT22;12242;50.952;4.678;2023-04-24T03:28:19;8.80;99.90
24035;DHT22;12242;50.952;4.678;2023-04-24T03:30:47;8.80;99.90
24035;DHT22;12242;50.952;4.678;2023-04-24T03:33:15;8.80;99.90
24035;DHT22;12242;50.952;4.678;2023-04-24T03:35:42;8.80;99.90
24035;DHT22;12242;50.952;4.678;2023-04-24T03:38:10;8.90;99.90
24035;DHT22;12242;50.952;4.678;2023-04-24T03:40:38;8.80;99.90
24035;DHT22;12242;50.952;4.678;2023-04-24T03:43:05;8.80;99.90
24035;DHT22;12242;50.952;4.678;2023-04-24T03:45:33;8.80;99.90
24035;DHT22;12242;50.952;4.678;2023-04-24T03:48:01;8.80;99.90
24035;DHT22;12242;50.952;4.678;2023-04-24T03:50:28;8.80;99.90
24035;DHT22;12242;50.952;4.678;2023-04-24T03:52:56;8.90;99.90
24035;DHT22;12242;50.952;4.678;2023-04-24T03:55:24;8.80;99.90
24035;DHT22;12242;50.952;4.678;2023-04-24T03:57:52;8.80;99.90
24035;DHT22;12242;50.952;4.678;2023-04-24T04:00:19;8.80;99.90
24035;DHT22;12242;50.952;4.678;2023-04-24T04:02:48;8.80;99.90
24035;DHT22;12242;50.952;4.678;2023-04-24T04:05:16;8.80;99.90
24035;DHT22;12242;50.952;4.678;2023-04-24T04:07:43;8.80;99.90
24035;DHT22;12242;50.952;4.678;2023-04-24T04:10:11;8.90;99.90
24035;DHT22;12242;50.952;4.678;2023-04-24T04:12:39;8.90;99.90
24035;DHT22;12242;50.952;4.678;2023-04-24T04:15:06;8.90;99.90
24035;DHT22;12242;50.952;4.678;2023-04-24T04:17:34;8.80;99.90
24035;DHT22;12242;50.952;4.678;2023-04-24T04:20:04;8.80;99.90
24035;DHT22;12242;50.952;4.678;2023-04-24T04:22:36;8.80;99.90
24035;DHT22;12242;50.952;4.678;2023-04-24T04:25:04;8.80;99.90
24035;DHT22;12242;50.952;4.678;2023-04-24T04:27:32;8.80;99.90
24035;DHT22;12242;50.952;4.678;2023-04-24T04:29:59;8.90;99.90
24035;DHT22;12242;50.952;4.678;2023-04-24T04:32:32;8.90;99.90
24035;DHT22;12242;50.952;4.678;2023-04-24T04:35:01;8.90;99.90
24035;DHT22;12242;50.952;4.678;2023-04-24T04:37:30;8.90;99.90
24035;DHT22;12242;50.952;4.678;2023-04-24T04:39:59;9.00;99.90
24035;DHT22;12242;50.952;4.678;2023-04-24T04:42:27;8.90;99.90
24035;DHT22;12242;50.952;4.678;2023-04-24T04:44:55;8.80;99.90
24035;DHT22;12242;50.952;4.678;2023-04-24T04:47:24;8.80;99.90
24035;DHT22;12242;50.952;4.678;2023-04-24T04:49:52;8.80;99.90
24035;DHT22;12242;50.952;4.678;2023-04-24T04:52:20;8.80;99.90
24035;DHT22;12242;50.952;4.678;2023-04-24T04:54:52;8.90;99.90
24035;DHT22;12242;50.952;4.678;2023-04-24T04:57:20;9.00;99.90
24035;DHT22;12242;50.952;4.678;2023-04-24T04:59:47;9.00;99.90
24035;DHT22;12242;50.952;4.678;2023-04-24T05:02:15;8.90;99.90
24035;DHT22;12242;50.952;4.678;2023-04-24T05:04:43;8.80;99.90
24035;DHT22;12242;50.952;4.678;2023-04-24T05:07:11;8.80;99.90
24035;DHT22;12242;50.952;4.678;2023-04-24T05:09:39;8.90;99.90
24035;DHT22;12242;50.952;4.678;2023-04-24T05:12:07;8.90;99.90
24035;DHT22;12242;50.952;4.678;2023-04-24T05:14:34;9.10;99.90
24035;DHT22;12242;50.952;4.678;2023-04-24T05:17:02;9.00;99.90
24035;DHT22;12242;50.952;4.678;2023-04-24T05:19:30;8.80;99.90
24035;DHT22;12242;50.952;4.678;2023-04-24T05:22:00;8.70;99.90
24035;DHT22;12242;50.952;4.678;2023-04-24T05:24:30;8.70;99.90
24035;DHT22;12242;50.952;4.678;2023-04-24T05:26:58;8.70;99.90
24035;DHT22;12242;50.952;4.678;2023-04-24T05:29:26;8.70;99.90
24035;DHT22;12242;50.952;4.678;2023-04-24T05:31:54;8.70;99.90
24035;DHT22;12242;50.952;4.678;2023-04-24T05:34:22;8.70;99.90
24035;DHT22;12242;50.952;4.678;2023-04-24T05:36:49;8.50;99.90
24035;DHT22;12242;50.952;4.678;2023-04-24T05:39:18;8.60;99.90
24035;DHT22;12242;50.952;4.678;2023-04-24T05:41:45;8.60;99.90
24035;DHT22;12242;50.952;4.678;2023-04-24T05:44:13;8.70;99.90
24035;DHT22;12242;50.952;4.678;2023-04-24T05:46:41;8.70;99.90
24035;DHT22;12242;50.952;4.678;2023-04-24T05:49:08;8.60;99.90
24035;DHT22;12242;50.952;4.678;2023-04-24T05:51:36;8.60;99.90
24035;DHT22;12242;50.952;4.678;2023-04-24T05:54:03;8.60;99.90
24035;DHT22;12242;50.952;4.678;2023-04-24T05:56:31;8.60;99.90
24035;DHT22;12242;50.952;4.678;2023-04-24T05:58:58;8.60;99.90
24035;DHT22;12242;50.952;4.678;2023-04-24T06:01:26;8.40;99.90
24035;DHT22;12242;50.952;4.678;2023-04-24T06:03:54;8.50;99.90
24035;DHT22;12242;50.952;4.678;2023-04-24T06:06:21;8.50;99.90
24035;DHT22;12242;50.952;4.678;2023-04-24T06:08:49;8.50;99.90
24035;DHT22;12242;50.952;4.678;2023-04-24T06:11:17;8.50;99.90
24035;DHT22;12242;50.952;4.678;2023-04-24T06:13:44;8.60;99.90
24035;DHT22;12242;50.952;4.678;2023-04-24T06:16:12;8.60;99.90
24035;DHT22;12242;50.952;4.678;2023-04-24T06:18:40;8.60;99.90
24035;DHT22;12242;50.952;4.678;2023-04-24T06:21:08;8.60;99.90
24035;DHT22;12242;50.952;4.678;2023-04-24T06:23:35;8.70;99.90
24035;DHT22;12242;50.952;4.678;2023-04-24T06:26:03;8.60;99.90
24035;DHT22;12242;50.952;4.678;2023-04-24T06:28:30;8.60;99.90
24035;DHT22;12242;50.952;4.678;2023-04-24T06:30:58;8.60;99.90
24035;DHT22;12242;50.952;4.678;2023-04-24T06:33:26;8.60;99.90
24035;DHT22;12242;50.952;4.678;2023-04-24T06:35:53;8.70;99.90
24035;DHT22;12242;50.952;4.678;2023-04-24T06:38:21;8.60;99.90
24035;DHT22;12242;50.952;4.678;2023-04-24T06:40:48;8.70;99.90
24035;DHT22;12242;50.952;4.678;2023-04-24T06:43:16;8.60;99.90
24035;DHT22;12242;50.952;4.678;2023-04-24T06:45:43;8.80;99.90
24035;DHT22;12242;50.952;4.678;2023-04-24T06:48:11;8.80;99.90
24035;DHT22;12242;50.952;4.678;2023-04-24T06:50:39;8.80;99.90
24035;DHT22;12242;50.952;4.678;2023-04-24T06:53:06;8.80;99.90
24035;DHT22;12242;50.952;4.678;2023-04-24T06:55:35;8.70;99.90
24035;DHT22;12242;50.952;4.678;2023-04-24T06:58:03;8.80;99.90
24035;DHT22;12242;50.952;4.678;2023-04-24T07:00:31;8.80;99.90
24035;DHT22;12242;50.952;4.678;2023-04-24T07:02:58;8.90;99.90
24035;DHT22;12242;50.952;4.678;2023-04-24T07:05:26;9.00;99.90
24035;DHT22;12242;50.952;4.678;2023-04-24T07:07:54;9.10;99.90
24035;DHT22;12242;50.952;4.678;2023-04-24T07:10:21;9.00;99.90
24035;DHT22;12242;50.952;4.678;2023-04-24T07:12:49;8.90;99.90
24035;DHT22;12242;50.952;4.678;2023-04-24T07:15:16;8.90;99.90
24035;DHT22;12242;50.952;4.678;2023-04-24T07:17:44;9.00;99.90
24035;DHT22;12242;50.952;4.678;2023-04-24T07:20:11;9.00;99.90
24035;DHT22;12242;50.952;4.678;2023-04-24T07:22:41;9.00;99.90
24035;DHT22;12242;50.952;4.678;2023-04-24T07:25:09;9.00;99.90
24035;DHT22;12242;50.952;4.678;2023-04-24T07:27:37;9.10;99.90
24035;DHT22;12242;50.952;4.678;2023-04-24T07:30:05;9.20;99.90
24035;DHT22;12242;50.952;4.678;2023-04-24T07:32:34;9.30;99.90
24035;DHT22;12242;50.952;4.678;2023-04-24T07:35:02;9.50;99.90
24035;DHT22;12242;50.952;4.678;2023-04-24T07:37:30;9.60;99.90
24035;DHT22;12242;50.952;4.678;2023-04-24T07:39:57;9.80;99.90
24035;DHT22;12242;50.952;4.678;2023-04-24T07:42:25;9.90;99.90
24035;DHT22;12242;50.952;4.678;2023-04-24T07:44:52;9.90;99.90
24035;DHT22;12242;50.952;4.678;2023-04-24T07:47:20;9.80;99.90
24035;DHT22;12242;50.952;4.678;2023-04-24T07:49:48;9.70;99.90
24035;DHT22;12242;50.952;4.678;2023-04-24T07:52:15;9.70;99.90
24035;DHT22;12242;50.952;4.678;2023-04-24T07:54:43;9.80;99.90
24035;DHT22;12242;50.952;4.678;2023-04-24T07:57:11;9.60;99.90
24035;DHT22;12242;50.952;4.678;2023-04-24T07:59:38;9.70;99.90
24035;DHT22;12242;50.952;4.678;2023-04-24T08:02:06;9.60;99.90
24035;DHT22;12242;50.952;4.678;2023-04-24T08:04:34;9.90;99.90
24035;DHT22;12242;50.952;4.678;2023-04-24T08:07:02;9.90;99.90
24035;DHT22;12242;50.952;4.678;2023-04-24T08:09:29;9.60;99.90
24035;DHT22;12242;50.952;4.678;2023-04-24T08:11:57;9.50;99.90
24035;DHT22;12242;50.952;4.678;2023-04-24T08:14:24;9.30;99.90
24035;DHT22;12242;50.952;4.678;2023-04-24T08:16:54;9.20;99.90
24035;DHT22;12242;50.952;4.678;2023-04-24T08:19:26;9.10;99.90
24035;DHT22;12242;50.952;4.678;2023-04-24T08:21:54;9.10;99.90
24035;DHT22;12242;50.952;4.678;2023-04-24T08:24:22;9.20;99.90
24035;DHT22;12242;50.952;4.678;2023-04-24T08:26:50;9.30;99.90
24035;DHT22;12242;50.952;4.678;2023-04-24T08:29:18;9.40;99.90
24035;DHT22;12242;50.952;4.678;2023-04-24T08:31:46;9.60;99.90
24035;DHT22;12242;50.952;4.678;2023-04-24T08:34:13;10.00;99.90
24035;DHT22;12242;50.952;4.678;2023-04-24T08:36:41;10.30;99.90
24035;DHT22;12242;50.952;4.678;2023-04-24T08:39:14;10.70;99.90
24035;DHT22;12242;50.952;4.678;2023-04-24T08:41:42;11.30;99.90
24035;DHT22;12242;50.952;4.678;2023-04-24T08:44:11;12.80;99.90
24035;DHT22;12242;50.952;4.678;2023-04-24T08:46:40;15.40;99.90
24035;DHT22;12242;50.952;4.678;2023-04-24T08:49:08;15.80;99.90
24035;DHT22;12242;50.952;4.678;2023-04-24T08:51:37;14.50;99.90
24035;DHT22;12242;50.952;4.678;2023-04-24T08:54:05;14.50;99.90
24035;DHT22;12242;50.952;4.678;2023-04-24T08:56:36;14.80;99.90
24035;DHT22;12242;50.952;4.678;2023-04-24T08:59:06;15.40;99.90
24035;DHT22;12242;50.952;4.678;2023-04-24T09:01:34;15.00;99.90
24035;DHT22;12242;50.952;4.678;2023-04-24T09:04:07;13.80;99.90
24035;DHT22;12242;50.952;4.678;2023-04-24T09:06:35;13.60;99.90
24035;DHT22;12242;50.952;4.678;2023-04-24T09:09:03;12.70;99.90
24035;DHT22;12242;50.952;4.678;2023-04-24T09:11:31;12.20;99.90
24035;DHT22;12242;50.952;4.678;2023-04-24T09:14:02;11.70;99.90
24035;DHT22;12242;50.952;4.678;2023-04-24T09:16:31;11.70;99.90
24035;DHT22;12242;50.952;4.678;2023-04-24T09:19:02;11.60;99.90
24035;DHT22;12242;50.952;4.678;2023-04-24T09:21:34;11.50;99.90
24035;DHT22;12242;50.952;4.678;2023-04-24T09:24:05;11.40;99.90
24035;DHT22;12242;50.952;4.678;2023-04-24T09:26:35;12.80;99.90
24035;DHT22;12242;50.952;4.678;2023-04-24T09:29:04;15.50;99.90
24035;DHT22;12242;50.952;4.678;2023-04-24T09:31:32;17.00;99.90
24035;DHT22;12242;50.952;4.678;2023-04-24T09:34:03;18.00;99.90
24035;DHT22;12242;50.952;4.678;2023-04-24T09:36:39;17.60;99.90
24035;DHT22;12242;50.952;4.678;2023-04-24T09:39:10;17.50;99.90
24035;DHT22;12242;50.952;4.678;2023-04-24T09:41:54;16.20;99.90
24035;DHT22;12242;50.952;4.678;2023-04-24T09:44:27;15.30;99.90
24035;DHT22;12242;50.952;4.678;2023-04-24T09:46:59;14.60;99.90
24035;DHT22;12242;50.952;4.678;2023-04-24T09:49:30;13.80;99.90
24035;DHT22;12242;50.952;4.678;2023-04-24T09:52:08;12.80;99.90
24035;DHT22;12242;50.952;4.678;2023-04-24T09:54:37;12.20;99.90
24035;DHT22;12242;50.952;4.678;2023-04-24T09:57:07;12.00;99.90
24035;DHT22;12242;50.952;4.678;2023-04-24T09:59:42;12.00;99.90
24035;DHT22;12242;50.952;4.678;2023-04-24T10:02:18;12.20;99.90
24035;DHT22;12242;50.952;4.678;2023-04-24T10:04:56;12.40;99.90
24035;DHT22;12242;50.952;4.678;2023-04-24T10:07:27;12.90;99.90
24035;DHT22;12242;50.952;4.678;2023-04-24T10:09:54;15.30;99.90
24035;DHT22;12242;50.952;4.678;2023-04-24T10:12:23;15.90;99.90
24035;DHT22;12242;50.952;4.678;2023-04-24T10:14:52;14.80;99.90
24035;DHT22;12242;50.952;4.678;2023-04-24T10:17:21;13.90;99.90
24035;DHT22;12242;50.952;4.678;2023-04-24T10:19:49;13.30;99.90
24035;DHT22;12242;50.952;4.678;2023-04-24T10:22:17;12.70;99.90
24035;DHT22;12242;50.952;4.678;2023-04-24T10:24:45;12.30;99.90
24035;DHT22;12242;50.952;4.678;2023-04-24T10:27:15;12.70;99.90
24035;DHT22;12242;50.952;4.678;2023-04-24T10:29:43;13.00;99.90
24035;DHT22;12242;50.952;4.678;2023-04-24T10:32:12;13.40;99.90
24035;DHT22;12242;50.952;4.678;2023-04-24T10:34:40;13.20;99.90
24035;DHT22;12242;50.952;4.678;2023-04-24T10:37:07;12.90;99.90
24035;DHT22;12242;50.952;4.678;2023-04-24T10:39:35;12.90;99.90
24035;DHT22;12242;50.952;4.678;2023-04-24T10:42:15;12.40;99.90
24035;DHT22;12242;50.952;4.678;2023-04-24T10:44:43;12.40;99.90
24035;DHT22;12242;50.952;4.678;2023-04-24T10:47:13;12.60;99.90
24035;DHT22;12242;50.952;4.678;2023-04-24T10:49:41;12.90;99.90
24035;DHT22;12242;50.952;4.678;2023-04-24T10:52:09;15.10;99.90
24035;DHT22;12242;50.952;4.678;2023-04-24T11:00:09;16.00;99.90
24035;DHT22;12242;50.952;4.678;2023-04-24T11:02:38;15.80;99.90
24035;DHT22;12242;50.952;4.678;2023-04-24T11:05:07;14.40;99.90
24035;DHT22;12242;50.952;4.678;2023-04-24T11:10:47;13.10;99.90
24035;DHT22;12242;50.952;4.678;2023-04-24T11:13:21;12.80;99.90
24035;DHT22;12242;50.952;4.678;2023-04-24T11:16:14;13.00;99.90
24035;DHT22;12242;50.952;4.678;2023-04-24T11:18:43;13.40;99.90
24035;DHT22;12242;50.952;4.678;2023-04-24T11:21:18;14.10;99.90
24035;DHT22;12242;50.952;4.678;2023-04-24T11:23:46;14.10;99.90
24035;DHT22;12242;50.952;4.678;2023-04-24T11:26:22;13.90;99.90
24035;DHT22;12242;50.952;4.678;2023-04-24T11:29:07;13.50;99.90
24035;DHT22;12242;50.952;4.678;2023-04-24T11:31:43;13.30;99.90
24035;DHT22;12242;50.952;4.678;2023-04-24T11:34:17;13.90;99.90
24035;DHT22;12242;50.952;4.678;2023-04-24T11:36:46;15.40;99.90
24035;DHT22;12242;50.952;4.678;2023-04-24T11:39:15;15.90;99.90
24035;DHT22;12242;50.952;4.678;2023-04-24T11:41:42;15.40;99.90
24035;DHT22;12242;50.952;4.678;2023-04-24T11:44:10;14.70;99.90
24035;DHT22;12242;50.952;4.678;2023-04-24T11:46:38;14.50;99.90
24035;DHT22;12242;50.952;4.678;2023-04-24T11:49:08;13.70;99.90
24035;DHT22;12242;50.952;4.678;2023-04-24T11:51:36;13.90;99.90
24035;DHT22;12242;50.952;4.678;2023-04-24T11:54:19;15.00;99.90
24035;DHT22;12242;50.952;4.678;2023-04-24T11:56:47;15.80;99.90
24035;DHT22;12242;50.952;4.678;2023-04-24T11:59:15;15.90;99.90
24035;DHT22;12242;50.952;4.678;2023-04-24T12:01:47;15.80;99.90
24035;DHT22;12242;50.952;4.678;2023-04-24T12:04:17;14.50;99.90
24035;DHT22;12242;50.952;4.678;2023-04-24T12:07:04;13.70;99.90
24035;DHT22;12242;50.952;4.678;2023-04-24T12:09:45;13.90;99.90
24035;DHT22;12242;50.952;4.678;2023-04-24T12:12:16;13.80;99.90
24035;DHT22;12242;50.952;4.678;2023-04-24T12:14:52;13.60;99.90
24035;DHT22;12242;50.952;4.678;2023-04-24T12:17:33;13.80;99.90
24035;DHT22;12242;50.952;4.678;2023-04-24T12:20:06;14.10;99.90
24035;DHT22;12242;50.952;4.678;2023-04-24T12:25:14;14.60;99.90
24035;DHT22;12242;50.952;4.678;2023-04-24T12:27:42;14.30;99.90
24035;DHT22;12242;50.952;4.678;2023-04-24T12:30:13;14.00;99.90
24035;DHT22;12242;50.952;4.678;2023-04-24T12:32:43;13.80;99.90
24035;DHT22;12242;50.952;4.678;2023-04-24T12:35:11;13.60;99.90
24035;DHT22;12242;50.952;4.678;2023-04-24T12:37:41;13.80;99.90
24035;DHT22;12242;50.952;4.678;2023-04-24T12:40:14;14.20;99.90
24035;DHT22;12242;50.952;4.678;2023-04-24T12:42:49;14.30;99.90
24035;DHT22;12242;50.952;4.678;2023-04-24T12:45:19;14.30;99.90
24035;DHT22;12242;50.952;4.678;2023-04-24T12:47:48;14.50;99.90
24035;DHT22;12242;50.952;4.678;2023-04-24T12:50:16;14.60;99.90
24035;DHT22;12242;50.952;4.678;2023-04-24T12:52:44;14.40;99.90
24035;DHT22;12242;50.952;4.678;2023-04-24T12:55:11;14.90;99.90
24035;DHT22;12242;50.952;4.678;2023-04-24T12:57:39;15.20;99.90
24035;DHT22;12242;50.952;4.678;2023-04-24T13:00:08;15.20;99.90
24035;DHT22;12242;50.952;4.678;2023-04-24T13:02:36;15.10;99.90
24035;DHT22;12242;50.952;4.678;2023-04-24T13:05:04;15.00;99.90
24035;DHT22;12242;50.952;4.678;2023-04-24T13:07:32;14.80;99.90
24035;DHT22;12242;50.952;4.678;2023-04-24T13:10:00;14.70;99.90
24035;DHT22;12242;50.952;4.678;2023-04-24T13:12:27;15.00;99.90
24035;DHT22;12242;50.952;4.678;2023-04-24T13:14:55;14.90;99.90
24035;DHT22;12242;50.952;4.678;2023-04-24T13:17:23;14.60;99.90
24035;DHT22;12242;50.952;4.678;2023-04-24T13:19:51;14.70;99.90
24035;DHT22;12242;50.952;4.678;2023-04-24T13:22:19;14.90;99.90
24035;DHT22;12242;50.952;4.678;2023-04-24T13:24:46;14.10;99.90
24035;DHT22;12242;50.952;4.678;2023-04-24T13:27:16;14.10;99.90
24035;DHT22;12242;50.952;4.678;2023-04-24T13:29:44;14.50;99.90
24035;DHT22;12242;50.952;4.678;2023-04-24T13:32:12;14.90;99.90
24035;DHT22;12242;50.952;4.678;2023-04-24T13:34:39;14.80;99.90
24035;DHT22;12242;50.952;4.678;2023-04-24T13:37:07;14.60;99.90
24035;DHT22;12242;50.952;4.678;2023-04-24T13:39:35;14.70;99.90
24035;DHT22;12242;50.952;4.678;2023-04-24T13:42:03;14.70;99.90
24035;DHT22;12242;50.952;4.678;2023-04-24T13:44:31;14.30;99.90
24035;DHT22;12242;50.952;4.678;2023-04-24T13:46:59;14.20;99.90
24035;DHT22;12242;50.952;4.678;2023-04-24T13:49:27;14.20;99.90
24035;DHT22;12242;50.952;4.678;2023-04-24T13:51:56;14.10;99.90
24035;DHT22;12242;50.952;4.678;2023-04-24T13:54:23;14.40;99.90
24035;DHT22;12242;50.952;4.678;2023-04-24T13:56:56;14.30;99.90
24035;DHT22;12242;50.952;4.678;2023-04-24T13:59:23;14.40;99.90
24035;DHT22;12242;50.952;4.678;2023-04-24T14:01:51;14.40;99.90
24035;DHT22;12242;50.952;4.678;2023-04-24T14:04:19;14.60;99.90
24035;DHT22;12242;50.952;4.678;2023-04-24T14:06:47;14.80;99.90
24035;DHT22;12242;50.952;4.678;2023-04-24T14:09:15;15.00;99.90
24035;DHT22;12242;50.952;4.678;2023-04-24T14:11:42;14.90;99.90
24035;DHT22;12242;50.952;4.678;2023-04-24T14:14:10;14.90;99.90
24035;DHT22;12242;50.952;4.678;2023-04-24T14:16:38;14.90;99.90
24035;DHT22;12242;50.952;4.678;2023-04-24T14:19:06;14.90;99.90
24035;DHT22;12242;50.952;4.678;2023-04-24T14:21:34;14.50;99.90
24035;DHT22;12242;50.952;4.678;2023-04-24T14:24:02;14.50;99.90
24035;DHT22;12242;50.952;4.678;2023-04-24T14:26:30;14.60;99.90
24035;DHT22;12242;50.952;4.678;2023-04-24T14:28:58;14.80;99.90
24035;DHT22;12242;50.952;4.678;2023-04-24T14:31:41;14.80;99.90
24035;DHT22;12242;50.952;4.678;2023-04-24T14:34:09;14.70;99.90
24035;DHT22;12242;50.952;4.678;2023-04-24T14:36:36;14.70;99.90
24035;DHT22;12242;50.952;4.678;2023-04-24T14:39:04;15.00;99.90
24035;DHT22;12242;50.952;4.678;2023-04-24T14:41:34;14.90;99.90
24035;DHT22;12242;50.952;4.678;2023-04-24T14:44:03;14.60;99.90
24035;DHT22;12242;50.952;4.678;2023-04-24T14:46:32;14.50;99.90
24035;DHT22;12242;50.952;4.678;2023-04-24T14:48:59;14.60;99.90
24035;DHT22;12242;50.952;4.678;2023-04-24T14:51:27;14.60;99.90
24035;DHT22;12242;50.952;4.678;2023-04-24T14:53:56;14.60;99.90
24035;DHT22;12242;50.952;4.678;2023-04-24T14:56:23;14.70;99.90
24035;DHT22;12242;50.952;4.678;2023-04-24T14:58:51;14.60;99.90
24035;DHT22;12242;50.952;4.678;2023-04-24T15:01:19;14.60;99.90
24035;DHT22;12242;50.952;4.678;2023-04-24T15:03:47;14.30;99.90
24035;DHT22;12242;50.952;4.678;2023-04-24T15:06:16;14.00;99.90
24035;DHT22;12242;50.952;4.678;2023-04-24T15:08:43;14.10;99.90
24035;DHT22;12242;50.952;4.678;2023-04-24T15:11:14;14.00;99.90
24035;DHT22;12242;50.952;4.678;2023-04-24T15:13:42;14.00;99.90
24035;DHT22;12242;50.952;4.678;2023-04-24T15:16:13;13.80;99.90
24035;DHT22;12242;50.952;4.678;2023-04-24T15:18:41;13.90;99.90
24035;DHT22;12242;50.952;4.678;2023-04-24T15:21:09;14.00;99.90
24035;DHT22;12242;50.952;4.678;2023-04-24T15:23:37;14.10;99.90
24035;DHT22;12242;50.952;4.678;2023-04-24T15:26:04;14.10;99.90
24035;DHT22;12242;50.952;4.678;2023-04-24T15:28:32;13.70;99.90
24035;DHT22;12242;50.952;4.678;2023-04-24T15:31:00;13.60;99.90
24035;DHT22;12242;50.952;4.678;2023-04-24T15:33:27;13.70;99.90
24035;DHT22;12242;50.952;4.678;2023-04-24T15:35:56;13.80;99.90
24035;DHT22;12242;50.952;4.678;2023-04-24T15:38:24;13.50;99.90
24035;DHT22;12242;50.952;4.678;2023-04-24T15:40:51;13.60;99.90
24035;DHT22;12242;50.952;4.678;2023-04-24T15:43:19;13.60;99.90
24035;DHT22;12242;50.952;4.678;2023-04-24T15:45:49;13.60;99.90
24035;DHT22;12242;50.952;4.678;2023-04-24T15:48:17;13.50;99.90
24035;DHT22;12242;50.952;4.678;2023-04-24T15:50:45;13.40;99.90
24035;DHT22;12242;50.952;4.678;2023-04-24T15:53:13;13.50;99.90
24035;DHT22;12242;50.952;4.678;2023-04-24T15:55:40;13.50;99.90
24035;DHT22;12242;50.952;4.678;2023-04-24T15:58:08;13.50;99.90
24035;DHT22;12242;50.952;4.678;2023-04-24T16:00:36;13.50;99.90
24035;DHT22;12242;50.952;4.678;2023-04-24T16:03:03;13.40;99.90
24035;DHT22;12242;50.952;4.678;2023-04-24T16:05:34;13.30;99.90